Terminal Aerodrome Forecast
Issued by NWS Detroit/Pontiac, MI

Home | Current Version | Previous Version | Text Only | Print | Product List | Glossary On
Versions: 1 2 3 4 5 6 7 8 9 10 11 12 13 14 15 16 17 18 19
000
FTUS43 KDTX 271553 AAB
TAFFNT
TAF AMD
KFNT 271553Z 2716/2812 33013KT 5SM -SN SCT025 OVC045
      TEMPO 2716/2720 2SM -SN OVC025
     FM272300 34006KT P6SM BKN035
     FM281000 34008KT P6SM SCT030=

USA.gov is the U.S. government's official web portal to all federal, state and local government web resources and services.